• Join FlightAware (Why Join?)
  • Login
  • US Flag 
12:42PM EDT


 

Airport Tracker/Info


-or-


 

Live Flight TrackerFlight Track Log ✈ DAL1979 ✈ 07-May-2013 ✈ KMSP - KMCO

Flight Track Log - Related Links

Times and Time Zones

All times are in EDT time to prevent confusion due to time zone crossing. See the DAL1979 flight status page for this flight to view local times or setup timezone preferences in your user account.

Time Position Orientation Groundspeed Altitude Reporting Facility
EDT Latitude Longitude Course Direction KTS MPH feet Rate Location/Type
11:38AM 44.8940 -93.2520 301° West 184 212 1,800  Level FlightAware
11:38AM 44.8960 -93.2690 279° West 189 217 2,300 1,980 Climbing FlightAware
11:38AM 44.8950 -93.2900 266° West 201 231 2,800 1,500 Climbing FlightAware
11:39AM 44.8910 -93.3230 260° West 231 266 3,300 1,740 Climbing FlightAware
11:39AM 44.8810 -93.3670 252° West 248 285 4,400 2,100 Climbing FlightAware
11:40AM 44.8670 -93.3840 221° Southwest 259 298 4,900 2,400 Climbing FlightAware
11:40AM 44.8510 -93.3960 208° Southwest 261 300 5,600 2,700 Climbing FlightAware
11:40AM 44.8050 -93.3850 170° South 268 308 7,400 2,820 Climbing FlightAware
11:41AM 44.7930 -93.3660 132° Southeast 268 308 8,200 3,000 Climbing FlightAware
11:41AM 44.7840 -93.3430 119° Southeast 271 312 8,900 2,460 Climbing FlightAware
11:42AM 44.7580 -93.2810 121° Southeast 285 328 10,500 2,160 Climbing FlightAware
11:42AM 44.7260 -93.2160 125° Southeast 309 356 11,800 2,040 Climbing FlightAware
11:43AM 44.6880 -93.1390 125° Southeast 327 376 13,400 1,680 Climbing FlightAware
11:44AM 44.6510 -93.0660 125° Southeast 361 415 14,200 1,320 Climbing FlightAware
11:44AM 44.6100 -92.9850 125° Southeast 386 444 15,200 1,920 Climbing FlightAware
11:45AM 44.5650 -92.8920 124° Southeast 391 450 17,000 2,100 Climbing FlightAware
11:46AM 44.5240 -92.8090 125° Southeast 400 460 18,200 1,740 Climbing FlightAware
11:47AM 44.4740 -92.7100 125° Southeast 413 475 19,500 1,800 Climbing FlightAware
11:47AM 44.4290 -92.6210 125° Southeast 419 482 20,800 1,800 Climbing FlightAware
11:48AM 44.3840 -92.5330 126° Southeast 426 490 21,900 1,620 Climbing FlightAware
11:49AM 44.3350 -92.4320 124° Southeast 433 498 23,100 1,500 Climbing FlightAware
11:49AM 44.2930 -92.3360 121° Southeast 439 505 24,100 1,620 Climbing FlightAware
11:50AM 44.2450 -92.2230 121° Southeast 440 506 25,400 1,500 Climbing FlightAware
11:51AM 44.2020 -92.1260 122° Southeast 445 512 26,300 1,260 Climbing FlightAware
11:51AM 44.1610 -92.0300 121° Southeast 451 519 27,100 1,080 Climbing FlightAware
11:52AM 44.1110 -91.9160 121° Southeast 456 525 27,900 1,320 Climbing FlightAware
11:53AM 44.0670 -91.8160 121° Southeast 451 519 29,000 720 Climbing FlightAware
11:54AM 44.0180 -91.7030 121° Southeast 456 525 29,000  Level FlightAware
11:54AM 43.9760 -91.6080 122° Southeast 456 525 29,000  Level FlightAware
11:55AM 43.9230 -91.4920 122° Southeast 456 525 29,000  Level FlightAware
11:56AM 43.8690 -91.4060 131° Southeast 456 525 29,000  Level FlightAware
11:56AM 43.8100 -91.3240 135° Southeast 454 522 29,000  Level FlightAware
11:57AM 43.7390 -91.2250 135° Southeast 458 527 29,000  Level FlightAware
11:58AM 43.6810 -91.1440 135° Southeast 457 526 29,000  Level FlightAware
11:58AM 43.6150 -91.0530 135° Southeast 457 526 29,000  Level FlightAware
11:59AM 43.5550 -90.9690 135° Southeast 456 525 29,000  Level FlightAware
12:00PM 43.4970 -90.8880 135° Southeast 456 525 29,000  Level FlightAware
12:01PM 43.4270 -90.7920 135° Southeast 456 525 29,000  Level FlightAware
12:01PM 43.3680 -90.7110 135° Southeast 455 524 29,000  Level FlightAware
12:02PM 43.3010 -90.6200 135° Southeast 455 524 29,000  Level FlightAware
12:03PM 43.2430 -90.5400 135° Southeast 456 525 29,000  Level FlightAware
12:03PM 43.1820 -90.4570 135° Southeast 456 525 29,000  Level FlightAware
12:04PM 43.1140 -90.3650 135° Southeast 457 526 29,000  Level FlightAware
12:05PM 43.0550 -90.2850 135° Southeast 458 527 29,000  Level FlightAware
12:05PM 42.9870 -90.1930 135° Southeast 459 528 29,000  Level FlightAware
12:06PM 42.9250 -90.1100 136° Southeast 459 528 29,000  Level FlightAware
12:07PM 42.8650 -90.0290 135° Southeast 460 529 29,000  Level FlightAware
12:08PM 42.7980 -89.9590 143° Southeast 457 526 29,000  Level FlightAware
12:08PM 42.7090 -89.9290 166° South 456 525 29,000  Level FlightAware
12:09PM 42.6140 -89.9080 171° South 457 526 29,000  Level FlightAware
12:10PM 42.5370 -89.8920 171° South 456 525 29,000  Level FlightAware
12:10PM 42.4450 -89.8720 171° South 457 526 29,000  Level FlightAware
12:11PM 42.3490 -89.8510 171° South 457 526 29,000  Level FlightAware
12:12PM 42.2650 -89.8330 171° South 458 527 29,000  Level FlightAware
12:12PM 42.1730 -89.8130 171° South 458 527 29,000  Level FlightAware
12:13PM 42.0880 -89.7950 171° South 459 528 29,000  Level FlightAware
12:14PM 42.0070 -89.7780 171° South 459 528 29,000  Level FlightAware
12:15PM 41.9110 -89.7570 171° South 459 528 29,000  Level FlightAware
12:15PM 41.8250 -89.7390 171° South 459 528 29,000  Level FlightAware
12:16PM 41.7330 -89.7200 171° South 459 528 29,000  Level FlightAware
12:17PM 41.6510 -89.7020 171° South 460 529 29,000  Level FlightAware
12:17PM 41.5610 -89.6830 171° South 460 529 29,000  Level FlightAware
12:18PM 41.4690 -89.6640 171° South 461 531 29,000  Level FlightAware
12:19PM 41.3850 -89.6460 171° South 461 531 29,000  Level FlightAware
12:19PM 41.3010 -89.6290 171° South 461 531 29,000  Level FlightAware
12:20PM 41.2020 -89.6080 171° South 462 532 29,000  Level FlightAware
12:21PM 41.1180 -89.5920 172° South 463 533 29,000  Level FlightAware
12:21PM 41.0320 -89.5790 173° South 463 533 29,000  Level FlightAware
12:22PM 40.9440 -89.5650 173° South 464 534 29,000  Level FlightAware
12:23PM 40.8530 -89.5510 173° South 464 534 29,000  Level FlightAware
12:24PM 40.7610 -89.5360 173° South 465 535 29,000  Level FlightAware
12:24PM 40.6730 -89.5220 173° South 466 536 29,000  Level FlightAware
12:25PM 40.5860 -89.5080 173° South 466 536 29,000  Level FlightAware
12:26PM 40.4880 -89.4920 173° South 467 537 29,000  Level FlightAware
12:26PM 40.4010 -89.4780 173° South 467 537 29,000  Level FlightAware
12:27PM 40.3330 -89.4680 174° South 467 537 29,000  Level FlightAware
12:28PM 40.2330 -89.4520 173° South 467 537 29,000  Level FlightAware
12:29PM 40.1240 -89.4350 173° South 468 539 29,000  Level FlightAware
12:29PM 40.0400 -89.4220 173° South 469 540 29,000  Level FlightAware
12:30PM 39.9520 -89.4080 173° South 469 540 29,000  Level FlightAware
12:31PM 39.8560 -89.3930 173° South 469 540 29,000  Level FlightAware
12:31PM 39.7730 -89.3800 173° South 469 540 29,000  Level FlightAware
12:32PM 39.6750 -89.3650 173° South 470 541 29,000  Level FlightAware
12:33PM 39.6020 -89.3530 173° South 470 541 29,000  Level FlightAware
12:33PM 39.4980 -89.3370 173° South 470 541 29,000  Level FlightAware
12:34PM 39.4060 -89.3230 173° South 471 542 29,000  Level FlightAware
12:35PM 39.3170 -89.3100 174° South 471 542 29,000  Level FlightAware
12:35PM 39.2260 -89.2960 173° South 472 543 29,000  Level FlightAware
12:36PM 39.1290 -89.2810 173° South 473 544 29,000  Level FlightAware
12:37PM 39.0560 -89.2700 173° South 473 544 29,000  Level FlightAware
12:38PM 38.9470 -89.2530 173° South 474 545 29,000  Level FlightAware
12:38PM 38.8550 -89.2390 173° South 474 545 29,000  Level FlightAware
12:39PM 38.7750 -89.2270 173° South 475 547 29,000  Level FlightAware
12:40PM 38.6750 -89.2120 173° South 476 548 29,000  Level FlightAware
12:41PM 38.5700 -89.1960 173° South 478 550 29,000  Level FlightAware
12:41PM 38.4440 -89.1770 173° South 478 550 29,000  Level FlightAware
12:42PM 38.3530 -89.1530 168° South 480 552 29,000  Level FlightAware
12:43PM 38.2590 -89.1160 163° South 479 551 29,000  Level FlightAware
12:44PM 38.1200 -89.0040 148° Southeast 481 554 29,000  Level FlightAware
12:45PM 38.0430 -88.9350 145° Southeast 488 562 29,000  Level FlightAware
12:45PM 37.9680 -88.8690 145° Southeast 492 566 29,000  Level FlightAware
12:46PM 37.8850 -88.7960 145° Southeast 486 559 29,000  Level FlightAware
12:47PM 37.8110 -88.7330 146° Southeast 486 559 29,000  Level FlightAware
12:48PM 37.7250 -88.6600 146° Southeast 485 558 29,000  Level FlightAware
12:48PM 37.6510 -88.5970 146° Southeast 484 557 29,000  Level FlightAware
12:49PM 37.5660 -88.5250 146° Southeast 484 557 29,000  Level FlightAware
12:50PM 37.4940 -88.4640 146° Southeast 484 557 29,000  Level FlightAware
12:50PM 37.4200 -88.4010 146° Southeast 484 557 29,000  Level FlightAware
12:51PM 37.3350 -88.3300 146° Southeast 485 558 29,000  Level FlightAware
12:52PM 37.2600 -88.2660 146° Southeast 485 558 29,000  Level FlightAware
12:52PM 37.1980 -88.2150 147° Southeast 485 558 29,000  Level FlightAware
12:53PM 37.1020 -88.1340 146° Southeast 486 559 29,000  Level FlightAware
12:54PM 37.0210 -88.0670 147° Southeast 487 560 29,000  Level FlightAware
12:55PM 36.9300 -87.9910 146° Southeast 487 560 29,000  Level FlightAware
12:56PM 36.8310 -87.9090 146° Southeast 488 562 29,000  Level FlightAware
12:56PM 36.7520 -87.8440 147° Southeast 489 563 29,000  Level FlightAware
12:57PM 36.6770 -87.7810 146° Southeast 491 565 29,000  Level FlightAware
12:58PM 36.5930 -87.7120 147° Southeast 492 566 29,000  Level FlightAware
12:58PM 36.5160 -87.6490 147° Southeast 494 568 29,000  Level FlightAware
12:59PM 36.4310 -87.5790 146° Southeast 495 570 29,000 480 Level FlightAware
01:00PM 36.3540 -87.5170 147° Southeast 494 568 29,700 1,020 Climbing FlightAware
01:00PM 36.2770 -87.4540 147° Southeast 497 572 30,400 1,200 Climbing FlightAware
01:01PM 36.2010 -87.3920 147° Southeast 497 572 31,300 1,320 Climbing FlightAware
01:02PM 36.1130 -87.3190 146° Southeast 495 570 32,300 1,080 Climbing FlightAware
01:03PM 36.0280 -87.2510 147° Southeast 495 570 33,000 480 Climbing FlightAware
01:03PM 35.9500 -87.1880 147° Southeast 489 563 33,000  Level FlightAware
01:04PM 35.8640 -87.1180 147° Southeast 488 562 33,000  Level FlightAware
01:05PM 35.7890 -87.0580 147° Southeast 490 564 33,000  Level FlightAware
01:05PM 35.7130 -86.9970 147° Southeast 491 565 33,000  Level FlightAware
01:06PM 35.6370 -86.9355 147° Southeast 493 567 33,000  Level FlightAware ADS-B
01:07PM 35.5793 -86.8893 147° Southeast 492 566 33,000  Level FlightAware ADS-B
01:07PM 35.4926 -86.8200 147° Southeast 492 566 33,000  Level FlightAware ADS-B
01:08PM 35.4350 -86.7740 147° Southeast 492 566 33,000  Level FlightAware ADS-B
01:08PM 35.3774 -86.7281 147° Southeast 492 566 33,000  Level FlightAware ADS-B
01:09PM 35.3195 -86.6818 147° Southeast 493 567 33,000  Level FlightAware ADS-B
01:09PM 35.2579 -86.6330 147° Southeast 495 570 33,000  Level FlightAware ADS-B
01:10PM 35.1967 -86.5845 147° Southeast 497 572 33,000  Level FlightAware ADS-B
01:10PM 35.1297 -86.5314 147° Southeast 499 574 33,000  Level FlightAware ADS-B
01:11PM 35.0730 -86.4860 147° Southeast 500 575 33,000  Level FlightAware
01:12PM 34.9960 -86.4259 147° Southeast 501 577 33,000  Level FlightAware ADS-B
01:12PM 34.9281 -86.3725 147° Southeast 502 578 33,000  Level FlightAware ADS-B
01:13PM 34.8677 -86.3248 147° Southeast 504 580 33,000  Level FlightAware ADS-B
01:13PM 34.8045 -86.2754 147° Southeast 505 581 33,000  Level FlightAware ADS-B
01:14PM 34.7363 -86.2219 147° Southeast 506 582 33,000  Level FlightAware ADS-B
01:15PM 34.6356 -86.1430 147° Southeast 507 583 33,000  Level FlightAware ADS-B
01:15PM 34.5561 -86.0812 147° Southeast 508 585 33,000  Level FlightAware ADS-B
01:16PM 34.4963 -86.0346 147° Southeast 508 585 33,000  Level FlightAware ADS-B
01:16PM 34.4329 -85.9853 147° Southeast 506 582 33,000  Level FlightAware ADS-B
01:17PM 34.3710 -85.9373 147° Southeast 504 580 33,000  Level FlightAware ADS-B
01:17PM 34.3075 -85.8880 147° Southeast 503 579 33,000  Level FlightAware ADS-B
01:18PM 34.2470 -85.8415 148° Southeast 502 578 33,000  Level FlightAware ADS-B
01:18PM 34.1881 -85.7959 147° Southeast 501 577 33,000  Level FlightAware ADS-B
01:19PM 34.1204 -85.7436 147° Southeast 500 575 33,000  Level FlightAware ADS-B
01:20PM 34.0519 -85.6910 148° Southeast 499 574 33,000  Level FlightAware ADS-B
01:20PM 33.9796 -85.6355 148° Southeast 498 573 33,000  Level FlightAware ADS-B
01:21PM 33.9160 -85.5867 148° Southeast 498 573 33,000 -600 Level FlightAware ADS-B
01:21PM 33.8301 -85.5210 148° Southeast 499 574 32,300 -1,260 Descending FlightAware ADS-B
01:23PM 33.6460 -85.3810 148° Southeast 512 589 30,000 -1,440 Descending FlightAware
01:24PM 33.5810 -85.3310 147° Southeast 515 593 29,200 -660 Descending FlightAware
01:25PM 33.4600 -85.2410 148° Southeast 513 590 29,000 -180 Descending FlightAware
01:25PM 33.3940 -85.1890 147° Southeast 513 590 29,000  Level FlightAware
01:26PM 33.2490 -85.0810 148° Southeast 528 608 29,000  Level FlightAware
01:27PM 33.1520 -85.0080 148° Southeast 529 609 29,000  Level FlightAware
01:28PM 33.0750 -84.9510 148° Southeast 529 609 29,000  Level FlightAware
01:29PM 32.9730 -84.8750 148° Southeast 528 608 29,000  Level FlightAware
01:29PM 32.8910 -84.8140 148° Southeast 527 606 29,000  Level FlightAware
01:30PM 32.8120 -84.7550 148° Southeast 517 595 29,000  Level FlightAware
01:31PM 32.7310 -84.6950 148° Southeast 513 590 29,000  Level FlightAware
01:31PM 32.6500 -84.6320 147° Southeast 513 590 29,000  Level FlightAware
01:32PM 32.5380 -84.5530 149° Southeast 513 590 29,000  Level FlightAware
01:33PM 32.4770 -84.5070 148° Southeast 513 590 29,000  Level FlightAware
01:33PM 32.4080 -84.4560 148° Southeast 513 590 29,000  Level FlightAware
01:34PM 32.3230 -84.3930 148° Southeast 513 590 29,000  Level FlightAware
01:35PM 32.2540 -84.3430 148° Southeast 513 590 29,000  Level FlightAware
01:35PM 32.1860 -84.2920 148° Southeast 513 590 29,000  Level FlightAware
01:36PM 32.0222 -84.1644 148° Southeast 514 592 29,000  Level Jacksonville Center
01:37PM 31.9000 -84.0769 149° Southeast 514 592 29,000  Level Jacksonville Center
01:38PM 31.7817 -83.9925 149° Southeast 514 592 29,000  Level Jacksonville Center
01:39PM 31.6614 -83.9081 149° Southeast 509 586 29,000  Level Jacksonville Center
01:40PM 31.5411 -83.8139 146° Southeast 509 586 29,000  Level Jacksonville Center
01:41PM 31.4247 -83.7131 144° Southeast 514 592 29,000  Level Jacksonville Center
01:42PM 31.3147 -83.6125 142° Southeast 514 592 29,000  Level Jacksonville Center
01:43PM 31.2003 -83.5144 144° Southeast 514 592 29,000  Level Jacksonville Center
01:44PM 31.0881 -83.4142 143° Southeast 514 592 29,000  Level Jacksonville Center
01:45PM 30.9758 -83.3142 143° Southeast 514 592 29,000  Level Jacksonville Center
01:46PM 30.8633 -83.2169 143° Southeast 514 592 29,000 -60 Level Jacksonville Center
01:47PM 30.7528 -83.1175 142° Southeast 509 586 28,900 -960 Descending Jacksonville Center
01:48PM 30.6422 -83.0231 144° Southeast 504 580 27,100 -960 Descending Jacksonville Center
01:49PM 30.5381 -82.9336 144° Southeast 491 565 27,000 -60 Descending Jacksonville Center
01:50PM 30.4336 -82.8444 144° Southeast 485 558 27,000 -300 Level Jacksonville Center
01:57PM 29.7520 -82.3610 144° Southeast 440 506 25,000 -300 Descending FlightAware
01:57PM 29.6820 -82.3270 157° South 440 506 25,000 -540 Level FlightAware
01:58PM 29.5870 -82.2820 158° South 434 499 24,300 -900 Descending FlightAware
01:59PM 29.4960 -82.2380 157° South 434 499 23,500 -2,340 Descending FlightAware
02:00PM 29.4030 -82.1940 158° South 418 481 20,400 -3,180 Descending FlightAware
02:00PM 29.3350 -82.1610 157° South 410 472 19,000 -2,040 Descending FlightAware
02:01PM 29.2690 -82.1300 158° South 402 463 17,700 -2,160 Descending FlightAware
02:02PM 29.1880 -82.0920 158° South 391 450 16,000 -2,280 Descending FlightAware
02:02PM 29.1290 -82.0640 157° South 385 443 14,700 -2,340 Descending FlightAware
02:03PM 29.0460 -82.0240 157° South 384 442 12,700 -1,380 Descending FlightAware
02:04PM 28.9900 -81.9970 157° South 384 442 12,700 -1,140 Level FlightAware
02:05PM 28.9190 -81.9640 158° South 347 399 11,200 -1,320 Descending FlightAware
02:05PM 28.8630 -81.9220 147° Southeast 328 377 10,900 -480 Descending FlightAware
02:06PM 28.8280 -81.8640 125° Southeast 326 375 10,600 -960 Descending FlightAware
02:07PM 28.7940 -81.8020 122° Southeast 323 372 9,600 -1,320 Descending FlightAware
02:07PM 28.7810 -81.7680 114° Southeast 318 366 9,100 -1,740 Descending FlightAware
02:08PM 28.7670 -81.7330 115° Southeast 309 356 8,300 -2,160 Descending FlightAware
02:08PM 28.7490 -81.6880 115° Southeast 303 349 7,300 -1,560 Descending FlightAware
02:08PM 28.7350 -81.6510 113° Southeast 295 339 6,900 -420 Descending FlightAware
02:09PM 28.7180 -81.6050 113° Southeast 262 302 6,900 -300 Level FlightAware
02:09PM 28.7070 -81.5780 115° Southeast 254 292 6,600 -900 Descending FlightAware
02:10PM 28.6900 -81.5360 115° Southeast 278 320 6,000 -720 Descending FlightAware
02:10PM 28.6700 -81.5010 123° Southeast 260 299 5,900 -360 Descending FlightAware
02:11PM 28.6510 -81.4670 122° Southeast 250 288 5,700 -780 Descending FlightAware
02:11PM 28.6370 -81.4430 124° Southeast 248 285 5,200 -1,200 Descending FlightAware
02:12PM 28.6260 -81.4230 122° Southeast 240 276 4,900 -1,200 Descending FlightAware
02:12PM 28.6090 -81.3940 124° Southeast 234 269 4,300 -1,380 Descending FlightAware
02:12PM 28.6020 -81.3820 124° Southeast 233 268 4,000 -1,560 Descending FlightAware
02:13PM 28.5880 -81.3590 125° Southeast 216 249 3,400 -1,320 Descending FlightAware
02:13PM 28.5730 -81.3310 121° Southeast 194 223 2,800 -960 Descending FlightAware
02:14PM 28.5540 -81.3010 126° Southeast 193 222 2,400 -720 Descending FlightAware
02:14PM 28.5350 -81.2950 164° South 183 211 2,100 -900 Descending FlightAware
02:15PM 28.5110 -81.2950 180° South 157 181 1,600 -900 Descending FlightAware
02:15PM 28.4890 -81.2940 178° South 132 152 1,200 -720 Descending FlightAware
02:16PM 28.4760 -81.2940 180° South 134 154 1,000 -720 Descending FlightAware
02:16PM 28.4590 -81.2940 180° South 145 167 700 -840 Descending FlightAware
02:17PM 28.4360 -81.2940 180° South 134 154 200 -900 Descending FlightAware